Time;durP1;ratioP1;P1;durP2;ratioP2;P2;SDS_P1;SDS_P2;PMS_P1;PMS_P2;Temp;Humidity;BMP_temperature;BMP_pressure;BME280_temperature;BME280_humidity;BME280_pressure;Samples;Min_cycle;Max_cycle;Signal;HPM_P1;HPM_P2
2023/03/08 00:01:17;;;;;;;4.60;4.20;;;2.10;99.90;;;;;;5074156;28;20444;-70
2023/03/08 00:03:45;;;;;;;5.83;5.27;;;2.00;99.90;;;;;;5077717;28;20544;-71
2023/03/08 00:06:14;;;;;;;5.30;4.60;;;2.00;99.90;;;;;;5082793;28;20958;-71
2023/03/08 00:08:41;;;;;;;5.53;4.90;;;2.00;99.90;;;;;;5077860;28;20475;-72
2023/03/08 00:11:09;;;;;;;6.07;5.40;;;2.00;99.90;;;;;;5071043;28;20444;-71
2023/03/08 00:13:36;;;;;;;6.13;5.30;;;2.10;99.90;;;;;;5071314;28;20532;-71
2023/03/08 00:16:03;;;;;;;6.57;5.17;;;2.00;99.90;;;;;;5071268;28;20463;-70
2023/03/08 00:18:30;;;;;;;6.60;5.70;;;2.00;99.90;;;;;;5071343;28;20457;-71
2023/03/08 00:21:03;;;;;;;5.27;4.73;;;2.10;99.90;;;;;;5070654;28;20455;-71
2023/03/08 00:23:30;;;;;;;6.07;5.10;;;2.10;99.90;;;;;;5078780;28;20529;-71
2023/03/08 00:25:57;;;;;;;5.40;4.90;;;2.10;99.90;;;;;;5075977;28;20528;-72
2023/03/08 00:28:24;;;;;;;7.80;5.83;;;2.10;99.90;;;;;;5070854;28;20865;-71
2023/03/08 00:30:56;;;;;;;5.90;4.77;;;2.10;99.90;;;;;;5070401;28;20520;-71
2023/03/08 00:33:22;;;;;;;8.03;5.83;;;2.00;99.90;;;;;;5081355;28;20546;-71
2023/03/08 00:35:55;;;;;;;5.83;5.20;;;2.00;99.90;;;;;;5078536;28;20527;-71
2023/03/08 00:38:23;;;;;;;7.33;5.90;;;2.00;99.90;;;;;;5082397;28;20490;-71
2023/03/08 00:40:50;;;;;;;5.80;5.23;;;2.00;99.90;;;;;;5074860;28;20462;-71
2023/03/08 00:43:17;;;;;;;6.00;4.70;;;1.90;99.90;;;;;;5074543;28;20462;-70
2023/03/08 00:45:43;;;;;;;5.43;4.93;;;1.90;99.90;;;;;;5084309;28;20458;-71
2023/03/08 00:48:10;;;;;;;7.73;6.17;;;1.90;99.90;;;;;;5075071;28;21002;-71
2023/03/08 00:50:37;;;;;;;5.50;5.00;;;1.90;99.90;;;;;;5074963;28;20454;-71
2023/03/08 00:53:03;;;;;;;6.13;5.50;;;1.90;99.90;;;;;;5074782;28;20521;-71
2023/03/08 00:55:31;;;;;;;5.90;5.30;;;1.90;99.90;;;;;;5074975;28;20446;-71
2023/03/08 00:57:58;;;;;;;7.20;6.03;;;1.90;99.90;;;;;;5075347;28;20453;-71
2023/03/08 01:00:25;;;;;;;7.00;6.00;;;1.90;99.90;;;;;;5079140;28;21016;-71
2023/03/08 01:02:51;;;;;;;6.73;5.77;;;1.90;99.90;;;;;;5080041;28;21006;-71
2023/03/08 01:05:18;;;;;;;6.90;6.20;;;2.00;99.90;;;;;;5082874;28;20997;-71
2023/03/08 01:07:45;;;;;;;6.90;5.90;;;2.00;99.90;;;;;;5074798;28;20446;-71
2023/03/08 01:10:12;;;;;;;7.13;5.50;;;2.00;99.90;;;;;;5073950;28;20950;-71
2023/03/08 01:12:40;;;;;;;5.93;5.07;;;2.10;99.90;;;;;;5074186;28;20484;-71
2023/03/08 01:15:08;;;;;;;6.43;5.47;;;2.00;99.90;;;;;;5074039;28;21042;-72
2023/03/08 01:17:34;;;;;;;6.43;4.87;;;1.90;99.90;;;;;;5080094;28;20488;-71
2023/03/08 01:20:01;;;;;;;5.27;4.77;;;1.90;99.90;;;;;;5073898;28;20453;-72
2023/03/08 01:22:28;;;;;;;5.10;4.60;;;1.90;99.90;;;;;;5074345;28;20546;-72
2023/03/08 01:24:55;;;;;;;5.70;5.10;;;2.00;99.90;;;;;;5088037;28;20474;-71
2023/03/08 01:27:21;;;;;;;7.90;5.33;;;1.80;99.90;;;;;;5074013;28;20449;-71
2023/03/08 01:29:49;;;;;;;5.93;5.30;;;1.80;99.90;;;;;;5074426;28;20994;-71
2023/03/08 01:32:16;;;;;;;6.70;5.40;;;1.80;99.90;;;;;;5081750;28;20546;-71
2023/03/08 01:34:42;;;;;;;5.90;5.30;;;1.90;99.90;;;;;;5074629;28;20469;-71
2023/03/08 01:37:09;;;;;;;5.83;5.27;;;1.80;99.90;;;;;;5075944;28;20937;-71
2023/03/08 01:39:36;;;;;;;7.70;6.00;;;1.80;99.90;;;;;;5083843;28;20506;-71
2023/03/08 01:42:05;;;;;;;7.87;5.37;;;1.80;99.90;;;;;;5073526;28;20449;-71
2023/03/08 01:44:52;;;;;;;7.20;5.97;;;1.80;99.90;;;;;;5080319;28;20468;-72
2023/03/08 01:47:20;;;;;;;7.40;5.37;;;1.80;99.90;;;;;;5090175;28;20446;-71
2023/03/08 01:49:47;;;;;;;7.13;6.30;;;1.80;99.90;;;;;;5073626;28;20517;-71
2023/03/08 01:52:18;;;;;;;5.87;5.17;;;1.80;99.90;;;;;;5073615;28;20923;-71
2023/03/08 01:54:47;;;;;;;6.13;5.53;;;1.80;99.90;;;;;;5073991;28;20473;-71
2023/03/08 01:57:19;;;;;;;7.00;6.30;;;1.80;99.90;;;;;;5072994;28;21011;-71
2023/03/08 01:59:48;;;;;;;6.00;5.40;;;1.70;99.90;;;;;;5073447;28;20508;-71
2023/03/08 02:02:17;;;;;;;7.50;5.27;;;1.80;99.90;;;;;;5079843;28;20516;-72
2023/03/08 02:04:44;;;;;;;7.27;6.30;;;1.70;99.90;;;;;;5073388;28;20469;-72
2023/03/08 02:07:11;;;;;;;5.90;5.30;;;1.70;99.90;;;;;;5073488;28;20459;-71
2023/03/08 02:09:37;;;;;;;6.33;5.50;;;1.70;99.90;;;;;;5073637;28;20478;-71
2023/03/08 02:12:08;;;;;;;5.60;5.00;;;1.70;99.90;;;;;;5074057;28;20487;-71
2023/03/08 02:14:35;;;;;;;7.07;4.70;;;1.70;99.90;;;;;;5085159;28;20535;-71
2023/03/08 02:17:02;;;;;;;7.13;5.13;;;1.70;99.90;;;;;;5073117;28;20882;-71
2023/03/08 02:19:37;;;;;;;6.03;4.80;;;1.80;99.90;;;;;;5073330;28;20457;-71
2023/03/08 02:22:08;;;;;;;5.33;4.83;;;1.80;99.90;;;;;;5073336;28;20867;-71
2023/03/08 02:24:36;;;;;;;6.10;4.90;;;1.80;99.90;;;;;;5091134;28;20975;-71
2023/03/08 02:27:06;;;;;;;6.70;5.97;;;1.80;99.90;;;;;;5073749;28;20509;-71
2023/03/08 02:29:33;;;;;;;6.13;5.23;;;1.80;99.90;;;;;;5077187;28;20940;-71
2023/03/08 02:32:00;;;;;;;8.93;5.57;;;1.90;99.90;;;;;;5072593;28;20487;-71
2023/03/08 02:34:26;;;;;;;6.13;5.07;;;1.80;99.90;;;;;;5073145;28;20470;-71
2023/03/08 02:36:53;;;;;;;7.27;5.83;;;1.80;99.90;;;;;;5073010;28;20461;-71
2023/03/08 02:39:20;;;;;;;5.90;5.30;;;1.80;99.90;;;;;;5072421;28;20461;-71
2023/03/08 02:41:47;;;;;;;7.80;6.33;;;1.80;99.90;;;;;;5072723;28;20937;-71
2023/03/08 02:44:14;;;;;;;6.87;5.97;;;1.80;99.90;;;;;;5072855;28;20478;-71
2023/03/08 02:46:41;;;;;;;7.90;6.00;;;1.80;99.90;;;;;;5072855;28;20459;-71
2023/03/08 02:49:07;;;;;;;7.10;6.00;;;1.80;99.90;;;;;;5078016;28;20486;-71
2023/03/08 02:51:34;;;;;;;8.57;6.10;;;1.70;99.90;;;;;;5072345;28;20450;-71
2023/03/08 02:54:01;;;;;;;8.43;6.57;;;1.70;99.90;;;;;;5072005;28;20552;-71
2023/03/08 02:56:28;;;;;;;7.80;5.70;;;1.70;99.90;;;;;;5072356;28;20506;-71
2023/03/08 02:58:56;;;;;;;7.87;6.20;;;1.70;99.90;;;;;;5071451;28;21013;-71
2023/03/08 03:01:23;;;;;;;11.90;6.80;;;1.70;99.90;;;;;;5074869;28;20446;-71
2023/03/08 03:03:49;;;;;;;8.97;6.67;;;1.60;99.90;;;;;;5076282;28;20594;-72
2023/03/08 03:06:17;;;;;;;7.37;5.87;;;1.60;99.90;;;;;;5072153;28;20454;-71
2023/03/08 03:08:44;;;;;;;9.47;6.30;;;1.60;99.90;;;;;;5072060;28;20875;-71
2023/03/08 03:11:12;;;;;;;5.67;5.10;;;1.70;99.90;;;;;;5072319;28;20519;-71
2023/03/08 03:13:39;;;;;;;7.63;5.83;;;1.60;99.90;;;;;;5072109;28;20490;-71
2023/03/08 03:16:10;;;;;;;6.90;5.53;;;1.60;99.90;;;;;;5072105;28;20450;-71
2023/03/08 03:18:36;;;;;;;8.80;4.97;;;1.60;99.90;;;;;;5072658;28;20454;-71
2023/03/08 03:21:04;;;;;;;6.97;5.70;;;1.70;99.90;;;;;;5071723;28;20452;-71
2023/03/08 03:23:30;;;;;;;7.70;5.40;;;1.50;99.90;;;;;;5079601;28;20584;-71
2023/03/08 03:25:57;;;;;;;8.27;5.70;;;1.50;99.90;;;;;;5081349;28;20902;-71
2023/03/08 03:28:24;;;;;;;8.83;6.40;;;1.60;99.90;;;;;;5072064;28;20451;-71
2023/03/08 03:30:50;;;;;;;6.90;5.30;;;1.60;99.90;;;;;;5071686;28;20449;-71
2023/03/08 03:33:18;;;;;;;6.00;5.27;;;1.60;99.90;;;;;;5071000;28;20571;-71
2023/03/08 03:35:45;;;;;;;7.40;5.87;;;1.50;99.90;;;;;;5071252;28;20503;-71
2023/03/08 03:38:11;;;;;;;8.70;5.80;;;1.50;99.90;;;;;;5076381;28;20518;-71
2023/03/08 03:40:38;;;;;;;6.63;5.73;;;1.50;99.90;;;;;;5074222;28;20456;-71
2023/03/08 03:43:05;;;;;;;10.30;6.30;;;1.50;99.90;;;;;;5077962;28;20454;-71
2023/03/08 03:45:31;;;;;;;8.07;6.03;;;1.50;99.90;;;;;;5087322;28;20497;-71
2023/03/08 03:47:58;;;;;;;6.97;5.50;;;1.50;99.90;;;;;;5080021;28;20870;-71
2023/03/08 03:50:26;;;;;;;5.43;4.90;;;1.50;99.90;;;;;;5071740;28;20440;-71
2023/03/08 03:52:52;;;;;;;8.20;5.10;;;1.40;99.90;;;;;;5071580;28;20513;-71
2023/03/08 03:55:19;;;;;;;7.90;4.93;;;1.40;99.90;;;;;;5071687;28;20469;-71
2023/03/08 03:57:46;;;;;;;5.60;4.90;;;1.40;99.90;;;;;;5071546;28;20455;-71
2023/03/08 04:00:14;;;;;;;5.73;4.70;;;1.40;99.90;;;;;;5071313;28;20547;-71
2023/03/08 04:02:40;;;;;;;9.80;5.30;;;1.30;99.90;;;;;;5082824;28;20483;-71
2023/03/08 04:05:07;;;;;;;5.80;5.20;;;1.30;99.90;;;;;;5070932;28;20524;-71
2023/03/08 04:07:35;;;;;;;9.27;5.57;;;1.20;99.90;;;;;;5071189;28;20491;-71
2023/03/08 04:10:02;;;;;;;13.53;6.33;;;1.20;99.90;;;;;;5073523;28;20507;-71
2023/03/08 04:12:29;;;;;;;11.30;7.60;;;1.20;99.90;;;;;;5071751;28;20489;-71
2023/03/08 04:14:56;;;;;;;14.17;8.30;;;1.10;99.90;;;;;;5071390;28;20535;-71
2023/03/08 04:17:22;;;;;;;11.40;8.03;;;1.10;99.90;;;;;;5072548;28;20496;-71
2023/03/08 04:19:49;;;;;;;15.07;10.03;;;1.10;99.90;;;;;;5078454;28;20597;-71
2023/03/08 04:22:16;;;;;;;19.47;10.57;;;1.20;99.90;;;;;;5072411;28;20457;-72
2023/03/08 04:24:44;;;;;;;16.77;9.57;;;1.10;99.90;;;;;;5087400;28;20473;-71
2023/03/08 04:27:10;;;;;;;14.50;8.90;;;1.00;99.90;;;;;;5071029;28;20483;-71
2023/03/08 04:29:37;;;;;;;14.03;8.90;;;0.90;99.90;;;;;;5079478;28;20505;-71
2023/03/08 04:32:04;;;;;;;14.30;8.93;;;0.90;99.90;;;;;;5071378;28;20445;-71
2023/03/08 04:34:31;;;;;;;13.30;9.23;;;0.80;99.90;;;;;;5071204;28;20488;-71
2023/03/08 04:36:57;;;;;;;16.90;9.60;;;0.80;99.90;;;;;;5073152;28;20456;-72
2023/03/08 04:39:24;;;;;;;14.60;9.10;;;0.70;99.90;;;;;;5070724;28;20809;-71
2023/03/08 04:41:52;;;;;;;17.93;10.20;;;0.70;99.90;;;;;;5073012;28;20505;-71
2023/03/08 04:44:18;;;;;;;14.97;8.87;;;0.70;99.90;;;;;;5071901;28;20559;-71
2023/03/08 04:46:45;;;;;;;13.00;7.70;;;0.70;99.90;;;;;;5079969;28;20448;-71
2023/03/08 04:49:12;;;;;;;11.43;8.40;;;0.70;99.90;;;;;;5071810;28;20461;-71
2023/03/08 04:51:38;;;;;;;13.37;8.43;;;0.60;99.90;;;;;;5071430;28;20506;-71
2023/03/08 04:54:05;;;;;;;14.73;8.63;;;0.60;99.90;;;;;;5070470;28;20521;-72
2023/03/08 04:56:32;;;;;;;15.73;6.63;;;0.60;99.90;;;;;;5071284;28;20451;-71
2023/03/08 04:59:00;;;;;;;10.00;6.60;;;0.50;99.90;;;;;;5071426;28;20460;-71
2023/03/08 05:01:26;;;;;;;7.73;5.83;;;0.50;99.90;;;;;;5073464;28;20875;-71
2023/03/08 05:03:53;;;;;;;13.17;6.57;;;0.50;99.90;;;;;;5078784;28;20973;-72
2023/03/08 05:06:21;;;;;;;13.27;6.87;;;0.40;99.90;;;;;;5070665;28;20449;-72
2023/03/08 05:08:48;;;;;;;13.37;7.47;;;0.40;99.90;;;;;;5070923;28;20509;-72
2023/03/08 05:11:19;;;;;;;10.30;6.57;;;0.40;99.90;;;;;;5070792;28;20487;-72
2023/03/08 05:13:46;;;;;;;15.03;8.10;;;0.40;99.90;;;;;;5070771;28;20545;-71
2023/03/08 05:16:14;;;;;;;16.00;8.70;;;0.40;99.90;;;;;;5070488;28;20940;-71
2023/03/08 05:18:40;;;;;;;16.30;9.63;;;0.40;99.90;;;;;;5079078;28;20448;-71
2023/03/08 05:21:10;;;;;;;19.53;9.97;;;0.50;99.90;;;;;;5070588;28;20449;-71
2023/03/08 05:23:37;;;;;;;14.37;10.07;;;0.50;99.90;;;;;;5081292;28;20491;-72
2023/03/08 05:26:06;;;;;;;19.37;9.73;;;0.50;99.90;;;;;;5074496;28;20444;-72
2023/03/08 05:28:35;;;;;;;16.87;9.23;;;0.50;99.90;;;;;;5074806;28;20527;-72
2023/03/08 05:31:03;;;;;;;17.30;9.30;;;0.50;99.90;;;;;;5077772;28;20470;-72
2023/03/08 05:33:31;;;;;;;20.47;11.17;;;0.40;99.90;;;;;;5073634;28;20484;-72
2023/03/08 05:35:58;;;;;;;17.63;10.03;;;0.50;99.90;;;;;;5074559;28;20509;-72
2023/03/08 05:38:25;;;;;;;17.70;10.13;;;0.50;99.90;;;;;;5073772;28;20463;-71
2023/03/08 05:40:52;;;;;;;18.87;10.80;;;0.50;99.90;;;;;;5073937;28;20452;-72
2023/03/08 05:43:19;;;;;;;25.03;10.50;;;0.50;99.90;;;;;;5081955;28;20467;-72
2023/03/08 05:45:55;;;;;;;22.53;10.60;;;0.50;99.90;;;;;;5093596;28;20456;-72
2023/03/08 05:48:22;;;;;;;21.03;11.63;;;0.50;99.90;;;;;;5073968;28;20457;-72
2023/03/08 05:50:50;;;;;;;17.70;10.40;;;0.50;99.90;;;;;;5073726;28;20452;-72
2023/03/08 05:53:16;;;;;;;19.50;11.43;;;0.50;99.90;;;;;;5073605;28;20494;-72
2023/03/08 05:55:43;;;;;;;20.63;11.70;;;0.50;99.90;;;;;;5073808;28;20506;-72
2023/03/08 05:58:10;;;;;;;20.00;11.97;;;0.50;99.90;;;;;;5073255;28;20451;-72
2023/03/08 06:00:36;;;;;;;19.80;10.97;;;0.50;99.90;;;;;;5076683;28;20448;-72
2023/03/08 06:03:03;;;;;;;27.10;12.33;;;0.50;99.90;;;;;;5084689;28;20509;-74
2023/03/08 06:05:30;;;;;;;21.97;11.30;;;0.60;99.90;;;;;;5077371;28;20444;-74
2023/03/08 06:07:58;;;;;;;20.30;11.37;;;0.60;99.90;;;;;;5076652;28;20542;-74
2023/03/08 06:10:25;;;;;;;22.00;11.00;;;0.60;99.90;;;;;;5073571;28;20510;-74
2023/03/08 06:12:51;;;;;;;28.53;12.47;;;0.70;99.90;;;;;;5086600;28;20512;-75
2023/03/08 06:15:18;;;;;;;20.30;11.97;;;0.60;99.90;;;;;;5081810;28;20838;-75
2023/03/08 06:17:44;;;;;;;21.27;12.53;;;0.60;99.90;;;;;;5080799;28;20480;-74
2023/03/08 06:20:14;;;;;;;23.90;12.10;;;0.60;99.90;;;;;;5075676;28;20457;-76
2023/03/08 06:22:40;;;;;;;21.83;12.83;;;0.60;99.90;;;;;;5071836;28;20487;-76
2023/03/08 06:25:09;;;;;;;20.40;12.07;;;0.60;99.90;;;;;;5071456;28;20468;-76
2023/03/08 06:27:36;;;;;;;20.20;11.53;;;0.70;99.90;;;;;;5072624;28;20448;-76
2023/03/08 06:30:03;;;;;;;21.90;11.20;;;0.70;99.90;;;;;;5080377;28;21028;-76
2023/03/08 06:32:30;;;;;;;22.53;10.80;;;0.60;99.90;;;;;;5075512;28;20509;-76
2023/03/08 06:34:56;;;;;;;26.47;12.50;;;0.60;99.90;;;;;;5077073;28;20557;-76
2023/03/08 06:37:23;;;;;;;25.87;12.30;;;0.60;99.90;;;;;;5074452;28;20510;-76
2023/03/08 06:39:49;;;;;;;25.67;13.23;;;0.60;99.90;;;;;;5078422;28;20471;-76
2023/03/08 06:42:17;;;;;;;23.37;11.83;;;0.60;99.90;;;;;;5082871;28;20452;-76
2023/03/08 06:44:44;;;;;;;31.23;15.10;;;0.70;99.90;;;;;;5082180;28;20887;-76
2023/03/08 06:47:11;;;;;;;27.40;14.10;;;0.60;99.90;;;;;;5086532;28;20699;-76
2023/03/08 06:49:37;;;;;;;33.83;14.63;;;0.60;99.90;;;;;;5077384;28;20948;-75
2023/03/08 06:52:04;;;;;;;29.60;13.70;;;0.60;99.90;;;;;;5082401;28;20460;-75
2023/03/08 06:54:31;;;;;;;32.97;14.97;;;0.60;99.90;;;;;;5073801;28;20493;-75
2023/03/08 06:56:58;;;;;;;29.47;14.77;;;0.60;99.90;;;;;;5072845;28;20453;-76
2023/03/08 06:59:26;;;;;;;29.13;15.37;;;0.60;99.90;;;;;;5079158;28;20451;-76
2023/03/08 07:01:52;;;;;;;38.90;15.47;;;0.60;99.90;;;;;;5079362;28;20489;-75
2023/03/08 07:04:19;;;;;;;34.50;16.23;;;0.60;99.90;;;;;;5078029;28;20472;-76
2023/03/08 07:06:46;;;;;;;33.07;14.97;;;0.60;99.90;;;;;;5079596;28;20464;-75
2023/03/08 07:09:13;;;;;;;29.43;15.60;;;0.60;99.90;;;;;;5079413;28;20440;-76
2023/03/08 07:11:40;;;;;;;31.60;15.53;;;0.60;99.90;;;;;;5079760;28;20624;-75
2023/03/08 07:14:06;;;;;;;41.00;16.97;;;0.60;99.90;;;;;;5080028;28;20488;-75
2023/03/08 07:16:34;;;;;;;39.40;16.37;;;0.60;99.90;;;;;;5078412;28;20456;-75
2023/03/08 07:19:02;;;;;;;44.63;17.73;;;0.60;99.90;;;;;;5078457;28;20459;-75
2023/03/08 07:21:28;;;;;;;41.97;16.43;;;0.60;99.90;;;;;;5079297;28;20940;-75
2023/03/08 07:23:55;;;;;;;40.90;18.00;;;0.60;99.90;;;;;;5078737;28;20463;-75
2023/03/08 07:26:22;;;;;;;45.70;17.27;;;0.60;99.90;;;;;;5078193;28;20595;-75
2023/03/08 07:28:50;;;;;;;40.30;15.80;;;0.60;99.90;;;;;;5078621;28;20501;-75
2023/03/08 07:31:16;;;;;;;35.33;15.97;;;0.60;99.90;;;;;;5078598;28;20502;-75
2023/03/08 07:33:44;;;;;;;38.20;16.57;;;0.60;99.90;;;;;;5078770;28;21199;-75
2023/03/08 07:36:11;;;;;;;38.57;17.27;;;0.60;99.90;;;;;;5078820;28;20494;-75
2023/03/08 07:38:38;;;;;;;36.60;15.80;;;0.70;99.90;;;;;;5077227;28;20472;-74
2023/03/08 07:41:05;;;;;;;37.00;17.20;;;0.70;99.90;;;;;;5078819;28;20489;-74
2023/03/08 07:43:31;;;;;;;45.20;16.97;;;0.80;99.90;;;;;;5078868;28;20999;-76
2023/03/08 07:46:00;;;;;;;42.67;16.90;;;0.70;99.90;;;;;;5078676;28;20487;-75
2023/03/08 07:48:28;;;;;;;32.83;16.53;;;0.70;99.90;;;;;;5078985;28;20460;-74
2023/03/08 07:51:01;;;;;;;35.40;16.63;;;0.70;99.90;;;;;;5078099;28;20546;-75
2023/03/08 07:53:27;;;;;;;33.20;15.47;;;0.70;99.90;;;;;;5078773;28;20478;-74
2023/03/08 07:55:54;;;;;;;36.77;17.07;;;0.70;99.90;;;;;;5077929;28;20964;-74
2023/03/08 07:58:21;;;;;;;42.00;17.93;;;0.70;99.90;;;;;;5076944;28;20467;-73
2023/03/08 08:00:47;;;;;;;39.37;17.57;;;0.70;99.90;;;;;;5076860;28;20464;-74
2023/03/08 08:03:14;;;;;;;35.20;14.90;;;0.70;99.90;;;;;;5077828;28;20533;-74
2023/03/08 08:05:40;;;;;;;32.10;16.43;;;0.70;99.90;;;;;;5077733;28;20456;-74
2023/03/08 08:08:09;;;;;;;40.27;15.40;;;0.70;99.90;;;;;;5076890;28;20460;-74
2023/03/08 08:10:35;;;;;;;39.00;17.40;;;0.60;99.90;;;;;;5075406;28;20482;-75
2023/03/08 08:13:02;;;;;;;49.17;17.07;;;0.70;99.90;;;;;;5078179;28;20452;-75
2023/03/08 08:15:29;;;;;;;37.43;17.53;;;0.60;99.90;;;;;;5077034;28;21899;-75
2023/03/08 08:17:56;;;;;;;37.63;16.73;;;0.60;99.90;;;;;;5076461;28;20464;-75
2023/03/08 08:20:23;;;;;;;39.03;16.03;;;0.60;99.90;;;;;;5077413;28;20451;-75
2023/03/08 08:22:52;;;;;;;38.70;16.47;;;0.60;99.90;;;;;;5077306;28;20458;-75
2023/03/08 08:25:21;;;;;;;46.07;18.53;;;0.60;99.90;;;;;;5077410;28;20460;-75
2023/03/08 08:27:49;;;;;;;41.73;19.23;;;0.60;99.90;;;;;;5078444;28;20459;-75
2023/03/08 08:30:16;;;;;;;43.00;19.30;;;0.60;99.90;;;;;;5077774;28;20448;-75
2023/03/08 08:32:43;;;;;;;53.80;20.90;;;0.60;99.90;;;;;;5078354;28;20460;-73
2023/03/08 08:35:10;;;;;;;50.53;19.90;;;0.60;99.90;;;;;;5076889;28;20531;-73
2023/03/08 08:37:36;;;;;;;45.03;20.50;;;0.60;99.90;;;;;;5077290;28;20888;-73
2023/03/08 08:40:06;;;;;;;47.40;20.30;;;0.60;99.90;;;;;;5076615;28;20521;-73
2023/03/08 08:42:34;;;;;;;41.20;20.27;;;0.60;99.90;;;;;;5077024;28;20448;-73
2023/03/08 08:45:01;;;;;;;43.73;19.63;;;0.60;99.90;;;;;;5077962;28;20506;-73
2023/03/08 08:47:29;;;;;;;43.03;19.00;;;0.70;99.90;;;;;;5076748;28;20482;-73
2023/03/08 08:49:55;;;;;;;38.53;18.63;;;0.60;99.90;;;;;;5076001;28;21136;-72
2023/03/08 08:52:23;;;;;;;49.43;20.40;;;0.60;99.90;;;;;;5076974;28;20455;-73
2023/03/08 08:54:52;;;;;;;36.40;17.40;;;0.60;99.90;;;;;;5077260;28;20566;-73
2023/03/08 08:57:19;;;;;;;46.97;18.23;;;0.60;99.90;;;;;;5078337;28;20451;-73
2023/03/08 08:59:47;;;;;;;41.53;20.03;;;0.60;99.90;;;;;;5080615;28;20443;-73
2023/03/08 09:02:14;;;;;;;40.60;18.50;;;0.60;99.90;;;;;;5081216;28;20463;-73
2023/03/08 09:04:41;;;;;;;35.60;18.60;;;0.60;99.90;;;;;;5080775;28;20459;-73
2023/03/08 09:07:07;;;;;;;34.03;16.83;;;0.60;99.90;;;;;;5079804;28;20452;-73
2023/03/08 09:09:34;;;;;;;39.10;18.10;;;0.60;99.90;;;;;;5080444;28;20460;-73
2023/03/08 09:12:01;;;;;;;40.40;19.33;;;0.60;99.90;;;;;;5081333;28;20870;-73
2023/03/08 09:14:27;;;;;;;39.00;17.37;;;0.60;99.90;;;;;;5080103;28;20483;-72
2023/03/08 09:16:55;;;;;;;39.27;18.03;;;0.70;99.90;;;;;;5080990;28;20512;-73
2023/03/08 09:19:22;;;;;;;42.33;19.20;;;0.70;99.90;;;;;;5080457;28;20440;-73
2023/03/08 09:21:48;;;;;;;38.10;16.77;;;0.70;99.90;;;;;;5080559;28;20493;-73
2023/03/08 09:24:15;;;;;;;43.07;18.57;;;0.70;99.90;;;;;;5081185;28;20479;-74
2023/03/08 09:26:42;;;;;;;37.30;17.60;;;0.70;99.90;;;;;;5080782;28;20452;-73
2023/03/08 09:29:11;;;;;;;42.40;18.57;;;0.60;99.90;;;;;;5080368;28;20436;-74
2023/03/08 09:31:41;;;;;;;34.73;16.43;;;0.70;99.90;;;;;;5080299;28;21203;-73
2023/03/08 09:34:13;;;;;;;35.40;16.57;;;0.70;99.90;;;;;;5080778;28;20504;-74
2023/03/08 09:36:40;;;;;;;33.90;16.00;;;0.70;99.90;;;;;;5080207;28;20456;-74
2023/03/08 09:39:08;;;;;;;36.07;17.63;;;0.80;99.90;;;;;;5079802;28;20798;-73
2023/03/08 09:41:53;;;;;;;35.33;16.97;;;0.80;99.90;;;;;;5080022;28;20838;-73
2023/03/08 09:44:47;;;;;;;30.80;15.60;;;0.90;99.90;;;;;;5080604;28;20607;-74
2023/03/08 09:47:25;;;;;;;29.93;15.37;;;0.90;99.90;;;;;;5077858;28;20461;-73
2023/03/08 09:49:58;;;;;;;30.27;14.63;;;0.90;99.90;;;;;;5079517;28;20530;-74
2023/03/08 09:52:32;;;;;;;20.63;11.63;;;0.90;99.90;;;;;;5080570;28;20495;-73
2023/03/08 09:55:01;;;;;;;23.50;11.30;;;0.90;99.90;;;;;;5080449;28;20491;-73
2023/03/08 09:57:32;;;;;;;21.30;12.00;;;0.90;99.90;;;;;;5080513;28;20509;-73
2023/03/08 10:00:03;;;;;;;23.13;11.73;;;1.00;99.90;;;;;;5079916;28;20512;-73
2023/03/08 10:02:40;;;;;;;20.53;10.53;;;1.00;99.90;;;;;;5079782;28;21805;-73
2023/03/08 10:05:15;;;;;;;21.13;11.57;;;0.90;99.90;;;;;;5079673;28;20463;-74
2023/03/08 10:07:51;;;;;;;17.73;9.63;;;0.90;99.90;;;;;;5079925;28;20456;-74
2023/03/08 10:10:30;;;;;;;18.27;11.23;;;1.00;99.90;;;;;;5077122;28;20451;-74
2023/03/08 10:13:08;;;;;;;15.83;9.57;;;0.90;99.90;;;;;;5080394;28;20539;-73
2023/03/08 10:15:42;;;;;;;13.90;9.17;;;0.90;99.90;;;;;;5079637;28;21097;-73
2023/03/08 10:18:16;;;;;;;14.67;9.27;;;0.90;99.90;;;;;;5080150;28;20508;-73
2023/03/08 10:20:46;;;;;;;14.97;9.17;;;0.90;99.90;;;;;;5078940;28;20451;-74
2023/03/08 10:23:16;;;;;;;14.07;8.13;;;0.80;99.90;;;;;;5081107;28;20545;-73
2023/03/08 10:25:43;;;;;;;14.93;8.70;;;0.80;99.90;;;;;;5080787;28;20876;-74
2023/03/08 10:28:13;;;;;;;15.70;8.07;;;0.90;99.90;;;;;;5079752;28;20500;-73
2023/03/08 10:30:43;;;;;;;16.97;10.30;;;0.90;99.90;;;;;;5079532;28;20443;-73
2023/03/08 10:33:12;;;;;;;14.67;9.50;;;0.90;99.90;;;;;;5079702;28;20446;-74
2023/03/08 10:35:54;;;;;;;17.57;10.20;;;0.90;99.90;;;;;;5079686;28;20483;-73
2023/03/08 10:38:22;;;;;;;15.47;9.33;;;0.90;99.90;;;;;;5079870;28;20463;-74
2023/03/08 10:40:48;;;;;;;14.03;8.80;;;0.90;99.90;;;;;;5079701;28;20504;-74
2023/03/08 10:43:28;;;;;;;14.80;9.40;;;1.00;99.90;;;;;;5079692;28;20475;-73
2023/03/08 10:46:03;;;;;;;14.80;9.50;;;0.90;99.90;;;;;;5081006;28;20439;-74
2023/03/08 10:48:30;;;;;;;17.40;9.57;;;0.90;99.90;;;;;;5080027;28;20467;-74
2023/03/08 10:51:03;;;;;;;16.50;10.10;;;0.80;99.90;;;;;;5080027;28;20536;-74
2023/03/08 10:53:31;;;;;;;16.63;10.93;;;0.90;99.90;;;;;;5079554;28;20513;-74
2023/03/08 10:56:00;;;;;;;19.27;11.10;;;0.90;99.90;;;;;;5079540;28;20522;-74
2023/03/08 10:58:30;;;;;;;18.30;12.00;;;0.90;99.90;;;;;;5079131;28;20445;-75
2023/03/08 11:00:59;;;;;;;18.90;11.20;;;0.90;99.90;;;;;;5079079;28;20472;-74
2023/03/08 11:03:27;;;;;;;20.43;12.30;;;0.90;99.90;;;;;;5079755;28;20520;-74
2023/03/08 11:05:56;;;;;;;21.83;12.87;;;0.90;99.90;;;;;;5079068;28;20456;-74
2023/03/08 11:08:27;;;;;;;23.73;13.03;;;0.90;99.90;;;;;;5079216;28;20447;-74
2023/03/08 11:11:09;;;;;;;20.73;11.40;;;1.00;99.90;;;;;;5080317;28;20447;-74
2023/03/08 11:13:40;;;;;;;23.00;14.30;;;1.00;99.90;;;;;;5079769;28;20497;-74
2023/03/08 11:16:34;;;;;;;23.33;12.40;;;1.00;99.90;;;;;;5079487;28;20565;-74
2023/03/08 11:19:05;;;;;;;24.83;13.57;;;1.10;99.90;;;;;;5079189;28;20482;-74
2023/03/08 11:21:42;;;;;;;20.97;12.70;;;1.20;99.90;;;;;;5079063;28;20454;-73
2023/03/08 11:24:20;;;;;;;20.93;12.50;;;1.30;99.90;;;;;;5076956;28;20463;-74
2023/03/08 11:27:00;;;;;;;21.93;12.00;;;1.30;99.90;;;;;;5078118;28;20447;-73
2023/03/08 11:29:38;;;;;;;18.67;12.30;;;1.30;99.90;;;;;;5079033;28;20500;-73
2023/03/08 11:32:15;;;;;;;23.33;11.93;;;1.40;99.90;;;;;;5078522;28;20459;-74
2023/03/08 11:34:53;;;;;;;18.40;11.00;;;1.30;99.90;;;;;;5078798;28;20999;-74
2023/03/08 11:37:30;;;;;;;23.20;13.93;;;1.30;99.90;;;;;;5078429;28;20901;-73
2023/03/08 11:40:06;;;;;;;18.40;12.03;;;1.30;99.90;;;;;;5077839;28;20535;-72
2023/03/08 11:42:43;;;;;;;20.13;11.70;;;1.50;99.90;;;;;;5078897;28;20475;-73
2023/03/08 11:45:20;;;;;;;19.30;12.40;;;1.40;99.90;;;;;;5078284;28;20472;-72
2023/03/08 11:48:15;;;;;;;18.43;11.80;;;1.40;99.90;;;;;;5077661;28;20448;-74
2023/03/08 11:50:47;;;;;;;23.90;13.40;;;1.50;99.90;;;;;;5077093;28;20444;-72
2023/03/08 11:53:21;;;;;;;24.10;13.70;;;1.60;99.90;;;;;;5078331;28;20525;-73
2023/03/08 11:56:05;;;;;;;33.40;15.70;;;1.60;99.90;;;;;;5078225;28;20483;-72
2023/03/08 11:58:38;;;;;;;23.77;13.70;;;1.70;99.90;;;;;;5077787;28;20451;-73
2023/03/08 12:01:13;;;;;;;24.90;15.10;;;1.80;99.90;;;;;;5077986;28;20495;-73
2023/03/08 12:03:44;;;;;;;32.07;15.83;;;1.80;99.90;;;;;;5078074;28;20471;-73
2023/03/08 12:06:15;;;;;;;23.40;13.43;;;1.80;99.90;;;;;;5077572;28;20443;-74
2023/03/08 12:08:46;;;;;;;22.47;14.53;;;1.90;99.90;;;;;;5077935;28;20479;-72
2023/03/08 12:11:20;;;;;;;24.90;14.80;;;1.90;99.90;;;;;;5078491;28;20452;-74
2023/03/08 12:13:51;;;;;;;22.70;14.20;;;1.80;99.90;;;;;;5078053;28;20812;-73
2023/03/08 12:16:22;;;;;;;29.87;16.67;;;1.80;99.90;;;;;;5078161;28;20488;-73
2023/03/08 12:18:54;;;;;;;32.40;16.60;;;1.90;99.90;;;;;;5077539;28;20454;-72
2023/03/08 12:21:28;;;;;;;20.83;13.17;;;2.00;99.90;;;;;;5077927;28;20448;-72
2023/03/08 12:24:05;;;;;;;20.40;13.40;;;1.90;99.90;;;;;;5078713;28;20558;-72
2023/03/08 12:26:36;;;;;;;21.60;13.77;;;1.80;99.90;;;;;;5077215;28;20468;-73
2023/03/08 12:29:09;;;;;;;21.93;12.17;;;1.80;99.90;;;;;;5077513;28;20508;-72
2023/03/08 12:31:40;;;;;;;23.90;12.67;;;1.70;99.90;;;;;;5076996;28;20995;-73
2023/03/08 12:34:13;;;;;;;17.77;11.13;;;1.80;99.90;;;;;;5082027;28;20495;-73
2023/03/08 12:36:43;;;;;;;20.37;12.60;;;1.80;99.90;;;;;;5081601;28;20510;-73
2023/03/08 12:39:25;;;;;;;19.80;11.80;;;1.80;99.90;;;;;;5081238;28;20462;-73
2023/03/08 12:41:59;;;;;;;14.67;10.37;;;1.80;99.90;;;;;;5081136;28;20482;-71
2023/03/08 12:44:27;;;;;;;20.30;13.07;;;1.70;99.90;;;;;;5080487;28;20471;-71
2023/03/08 12:46:58;;;;;;;19.60;11.10;;;1.80;99.90;;;;;;5081252;28;20515;-71
2023/03/08 12:49:30;;;;;;;27.80;12.17;;;1.70;99.90;;;;;;5081240;28;20461;-73
2023/03/08 12:52:00;;;;;;;16.83;11.80;;;1.70;99.90;;;;;;5081495;28;20501;-72
2023/03/08 12:54:30;;;;;;;20.40;12.60;;;1.70;99.90;;;;;;5080948;28;20468;-72